Time;durP1;ratioP1;P1;durP2;ratioP2;P2;SDS_P1;SDS_P2;PMS_P1;PMS_P2;Temp;Humidity;BMP_temperature;BMP_pressure;BME280_temperature;BME280_humidity;BME280_pressure;Samples;Min_cycle;Max_cycle;Signal;HPM_P1;HPM_P2
2023/08/13 00:01:01;;;;;;;10.27;9.20;;;20.90;99.90;;;;;;5071512;28;20213;-62
2023/08/13 00:03:28;;;;;;;11.45;9.57;;;20.90;99.90;;;;;;5071460;28;20205;-61
2023/08/13 00:05:55;;;;;;;10.70;9.55;;;20.90;99.90;;;;;;5071419;28;20215;-60
2023/08/13 00:08:21;;;;;;;13.02;9.90;;;20.90;99.90;;;;;;5071577;28;20209;-63
2023/08/13 00:10:48;;;;;;;13.65;10.52;;;20.90;99.90;;;;;;5071365;28;20208;-60
2023/08/13 00:13:16;;;;;;;14.10;10.55;;;20.80;99.90;;;;;;5071312;28;20205;-61
2023/08/13 00:15:43;;;;;;;15.93;10.80;;;20.80;99.90;;;;;;5070973;28;20228;-61
2023/08/13 00:18:10;;;;;;;14.23;10.57;;;20.80;99.90;;;;;;5071354;28;20210;-61
2023/08/13 00:20:37;;;;;;;16.70;10.57;;;20.90;99.90;;;;;;5071431;28;20254;-61
2023/08/13 00:23:04;;;;;;;18.55;11.20;;;20.80;99.90;;;;;;5071215;28;20235;-61
2023/08/13 00:25:31;;;;;;;15.80;11.05;;;20.80;99.90;;;;;;5071361;28;20233;-59
2023/08/13 00:27:57;;;;;;;18.35;10.98;;;20.80;99.90;;;;;;5071341;28;20205;-58
2023/08/13 00:30:25;;;;;;;16.20;11.18;;;20.80;99.90;;;;;;5071093;28;20687;-58
2023/08/13 00:32:52;;;;;;;18.40;11.70;;;20.80;99.90;;;;;;5071615;28;20197;-57
2023/08/13 00:35:19;;;;;;;16.15;11.30;;;20.80;99.90;;;;;;5071278;28;20225;-58
2023/08/13 00:37:45;;;;;;;13.80;10.60;;;20.80;99.90;;;;;;5072173;28;20208;-58
2023/08/13 00:40:12;;;;;;;18.83;10.13;;;20.70;99.90;;;;;;5072204;28;20208;-59
2023/08/13 00:42:39;;;;;;;30.17;10.10;;;20.70;99.90;;;;;;5070963;28;20224;-59
2023/08/13 00:45:07;;;;;;;54.85;10.07;;;20.70;99.90;;;;;;5071274;28;20221;-58
2023/08/13 00:47:35;;;;;;;14.18;10.10;;;20.70;99.90;;;;;;5070856;28;20228;-59
2023/08/13 00:50:03;;;;;;;18.73;9.82;;;20.70;99.90;;;;;;5071154;28;20634;-60
2023/08/13 00:52:29;;;;;;;46.47;9.75;;;20.70;99.90;;;;;;5070977;28;20322;-61
2023/08/13 00:54:56;;;;;;;34.13;9.77;;;20.60;99.90;;;;;;5070805;28;20251;-60
2023/08/13 00:57:23;;;;;;;23.77;10.23;;;20.60;99.90;;;;;;5070769;28;20209;-59
2023/08/13 00:59:51;;;;;;;60.92;10.68;;;20.60;99.90;;;;;;5070984;28;20243;-59
2023/08/13 01:02:18;;;;;;;34.28;11.40;;;20.60;99.90;;;;;;5070760;28;20228;-60
2023/08/13 01:04:46;;;;;;;17.23;9.80;;;20.60;99.90;;;;;;5070682;28;20229;-58
2023/08/13 01:07:19;;;;;;;25.63;9.70;;;20.60;99.90;;;;;;5070581;28;20205;-58
2023/08/13 01:09:55;;;;;;;22.00;10.07;;;20.60;99.90;;;;;;5071491;28;20657;-58
2023/08/13 01:12:36;;;;;;;27.65;10.45;;;20.60;99.90;;;;;;5074663;28;20196;-59
2023/08/13 01:15:08;;;;;;;14.52;10.68;;;20.60;99.90;;;;;;5074284;28;20224;-58
2023/08/13 01:17:37;;;;;;;12.82;9.45;;;20.60;99.90;;;;;;5074099;28;20241;-57
2023/08/13 01:20:08;;;;;;;11.50;9.45;;;20.60;99.90;;;;;;5074108;28;20669;-58
2023/08/13 01:22:38;;;;;;;11.48;8.68;;;20.50;99.90;;;;;;5074421;28;20271;-59
2023/08/13 01:25:07;;;;;;;10.57;9.05;;;20.50;99.90;;;;;;5074115;28;20314;-59
2023/08/13 01:27:40;;;;;;;10.70;8.65;;;20.40;99.90;;;;;;5073940;28;20212;-59
2023/08/13 01:30:13;;;;;;;9.40;8.40;;;20.40;99.90;;;;;;5074242;28;20212;-60
2023/08/13 01:32:49;;;;;;;10.95;8.77;;;20.40;99.90;;;;;;5073876;28;20197;-59
2023/08/13 01:35:18;;;;;;;9.68;8.48;;;20.30;99.90;;;;;;5074331;28;20232;-59
2023/08/13 01:37:46;;;;;;;9.07;8.15;;;20.30;99.90;;;;;;5073797;28;20213;-59
2023/08/13 01:40:13;;;;;;;8.80;7.40;;;20.30;99.90;;;;;;5074144;28;20227;-59
2023/08/13 01:42:40;;;;;;;8.77;7.90;;;20.30;99.90;;;;;;5074123;28;20231;-59
2023/08/13 01:45:07;;;;;;;7.57;6.88;;;20.30;99.90;;;;;;5073716;28;20235;-60
2023/08/13 01:47:34;;;;;;;8.73;7.05;;;20.30;99.90;;;;;;5073942;28;20216;-60
2023/08/13 01:50:00;;;;;;;7.85;7.05;;;20.30;99.90;;;;;;5074072;28;20208;-59
2023/08/13 01:52:27;;;;;;;9.18;6.57;;;20.30;99.90;;;;;;5073933;28;20211;-60
2023/08/13 01:54:56;;;;;;;7.50;6.50;;;20.20;99.90;;;;;;5073836;28;20224;-60
2023/08/13 01:57:22;;;;;;;7.38;6.35;;;20.10;99.90;;;;;;5073559;28;20201;-58
2023/08/13 01:59:49;;;;;;;6.95;6.25;;;20.00;99.90;;;;;;5073447;28;20228;-60
2023/08/13 02:02:16;;;;;;;5.82;5.28;;;20.10;99.90;;;;;;5073803;28;20225;-59
2023/08/13 02:04:43;;;;;;;7.20;6.03;;;20.10;99.90;;;;;;5073995;28;20239;-58
2023/08/13 02:07:09;;;;;;;6.78;5.85;;;20.20;99.90;;;;;;5073437;28;20208;-59
2023/08/13 02:09:36;;;;;;;7.10;6.40;;;20.30;99.90;;;;;;5073759;28;20216;-58
2023/08/13 02:12:04;;;;;;;6.97;6.28;;;20.40;99.90;;;;;;5073361;28;20201;-58
2023/08/13 02:14:31;;;;;;;6.40;5.80;;;20.50;99.90;;;;;;5073574;28;20257;-59
2023/08/13 02:16:58;;;;;;;6.88;5.82;;;20.50;99.90;;;;;;5073651;28;20209;-60
2023/08/13 02:19:25;;;;;;;6.45;5.78;;;20.50;99.90;;;;;;5073712;28;20212;-58
2023/08/13 02:21:52;;;;;;;6.32;5.32;;;20.60;99.90;;;;;;5072797;28;20225;-58
2023/08/13 02:24:19;;;;;;;7.78;5.20;;;20.70;99.90;;;;;;5073248;28;20233;-58
2023/08/13 02:26:45;;;;;;;6.15;5.38;;;20.80;99.90;;;;;;5072868;28;20303;-59
2023/08/13 02:29:13;;;;;;;10.55;7.18;;;20.80;99.90;;;;;;5073319;28;20205;-60
2023/08/13 02:31:40;;;;;;;6.18;5.20;;;20.90;99.90;;;;;;5073144;28;20208;-60
2023/08/13 02:34:07;;;;;;;5.97;5.32;;;20.90;99.90;;;;;;5073357;28;20224;-58
2023/08/13 02:36:33;;;;;;;5.78;4.95;;;21.00;99.90;;;;;;5073222;28;20229;-59
2023/08/13 02:39:00;;;;;;;5.03;4.55;;;21.00;99.90;;;;;;5073009;28;20205;-62
2023/08/13 02:41:27;;;;;;;5.63;4.93;;;21.10;99.90;;;;;;5072949;28;20212;-59
2023/08/13 02:43:55;;;;;;;4.63;4.18;;;21.00;99.90;;;;;;5072919;28;20232;-59
2023/08/13 02:46:25;;;;;;;5.05;4.50;;;21.00;99.90;;;;;;5072824;28;20205;-57
2023/08/13 02:48:54;;;;;;;4.78;4.28;;;20.90;99.90;;;;;;5073083;28;20212;-57
2023/08/13 02:51:21;;;;;;;4.55;4.15;;;20.90;99.90;;;;;;5072857;28;20239;-59
2023/08/13 02:53:48;;;;;;;4.13;3.78;;;20.80;99.90;;;;;;5072522;28;20600;-58
2023/08/13 02:56:14;;;;;;;4.07;3.78;;;20.80;99.90;;;;;;5072679;28;20208;-58
2023/08/13 02:58:41;;;;;;;6.10;5.15;;;20.80;99.90;;;;;;5072868;28;20205;-58
2023/08/13 03:01:08;;;;;;;4.50;4.10;;;20.80;99.90;;;;;;5072744;28;20201;-59
2023/08/13 03:03:36;;;;;;;4.30;4.00;;;20.80;99.90;;;;;;5072459;28;20232;-60
2023/08/13 03:06:03;;;;;;;4.20;3.90;;;20.80;99.90;;;;;;5072091;28;20205;-60
2023/08/13 03:08:30;;;;;;;5.57;4.18;;;20.80;99.90;;;;;;5072759;28;20590;-58
2023/08/13 03:10:56;;;;;;;4.43;4.03;;;20.80;99.90;;;;;;5072525;28;20208;-58
2023/08/13 03:13:23;;;;;;;4.43;4.03;;;20.70;99.90;;;;;;5072430;28;20228;-59
2023/08/13 03:15:50;;;;;;;8.02;7.30;;;20.70;99.90;;;;;;5072234;28;20208;-59
2023/08/13 03:18:16;;;;;;;4.68;4.28;;;20.70;99.90;;;;;;5072292;28;20215;-58
2023/08/13 03:20:44;;;;;;;3.88;3.58;;;20.60;99.90;;;;;;5072125;28;20220;-60
2023/08/13 03:23:11;;;;;;;7.05;4.30;;;20.60;99.90;;;;;;5072136;28;20221;-59
2023/08/13 03:25:38;;;;;;;4.20;3.75;;;20.60;99.90;;;;;;5071943;28;20233;-59
2023/08/13 03:28:05;;;;;;;5.10;3.90;;;20.60;99.90;;;;;;5072369;28;20212;-58
2023/08/13 03:30:31;;;;;;;4.95;4.38;;;20.60;99.90;;;;;;5072571;28;20212;-58
2023/08/13 03:32:58;;;;;;;4.50;4.10;;;20.70;99.90;;;;;;5071555;28;20201;-59
2023/08/13 03:35:25;;;;;;;4.65;4.25;;;20.70;99.90;;;;;;5071757;28;20236;-58
2023/08/13 03:37:53;;;;;;;4.80;3.90;;;20.70;99.90;;;;;;5071719;28;20253;-58
2023/08/13 03:40:19;;;;;;;3.90;3.60;;;20.70;99.90;;;;;;5072075;28;20220;-58
2023/08/13 03:42:46;;;;;;;4.38;3.97;;;20.80;99.90;;;;;;5071550;28;20225;-60
2023/08/13 03:45:13;;;;;;;4.43;4.07;;;20.80;99.90;;;;;;5071880;28;20248;-58
2023/08/13 03:47:39;;;;;;;7.13;4.00;;;20.90;99.90;;;;;;5071271;28;20622;-58
2023/08/13 03:50:06;;;;;;;4.25;3.95;;;20.90;99.90;;;;;;5071584;28;20576;-60
2023/08/13 03:52:33;;;;;;;4.22;3.83;;;20.90;99.90;;;;;;5071977;28;20201;-58
2023/08/13 03:55:02;;;;;;;4.30;3.90;;;20.80;99.90;;;;;;5071737;28;20236;-57
2023/08/13 03:57:29;;;;;;;3.70;3.40;;;20.80;99.90;;;;;;5071674;28;20209;-58
2023/08/13 03:59:55;;;;;;;4.55;4.13;;;20.90;99.90;;;;;;5072005;28;20213;-57
2023/08/13 04:02:22;;;;;;;4.43;4.03;;;20.90;99.90;;;;;;5071823;28;20221;-57
2023/08/13 04:04:49;;;;;;;3.85;3.55;;;20.90;99.90;;;;;;5071300;28;20312;-58
2023/08/13 04:07:15;;;;;;;4.43;4.03;;;20.90;99.90;;;;;;5071465;28;20212;-58
2023/08/13 04:09:42;;;;;;;6.25;4.78;;;20.90;99.90;;;;;;5071567;28;20216;-58
2023/08/13 04:12:10;;;;;;;6.95;4.00;;;20.90;99.90;;;;;;5071231;28;20212;-58
2023/08/13 04:14:37;;;;;;;4.30;4.00;;;20.90;99.90;;;;;;5071324;28;20233;-59
2023/08/13 04:17:03;;;;;;;5.03;4.63;;;20.90;99.90;;;;;;5070862;28;20213;-57
2023/08/13 04:19:30;;;;;;;4.00;3.65;;;20.90;99.90;;;;;;5071572;28;20205;-58
2023/08/13 04:21:57;;;;;;;5.63;4.07;;;21.00;99.90;;;;;;5071286;28;20230;-59
2023/08/13 04:24:24;;;;;;;4.25;3.85;;;20.90;99.90;;;;;;5070995;28;20236;-59
2023/08/13 04:26:52;;;;;;;4.53;4.22;;;20.90;99.90;;;;;;5070971;28;20200;-58
2023/08/13 04:29:20;;;;;;;5.40;4.13;;;20.90;99.90;;;;;;5071129;28;20216;-60
2023/08/13 04:31:47;;;;;;;9.82;7.78;;;20.90;99.90;;;;;;5070872;28;20213;-60
2023/08/13 04:34:14;;;;;;;4.40;3.97;;;20.80;99.90;;;;;;5071161;28;20229;-59
2023/08/13 04:36:40;;;;;;;4.70;4.30;;;20.90;99.90;;;;;;5071034;28;20205;-58
2023/08/13 04:39:07;;;;;;;4.90;4.40;;;21.00;99.90;;;;;;5071136;28;20205;-59
2023/08/13 04:41:34;;;;;;;4.82;4.30;;;21.10;99.90;;;;;;5070924;28;20649;-58
2023/08/13 04:44:01;;;;;;;4.47;4.18;;;21.00;99.90;;;;;;5072126;28;20614;-58
2023/08/13 04:46:29;;;;;;;6.15;4.38;;;21.10;99.90;;;;;;5074860;28;20205;-59
2023/08/13 04:48:55;;;;;;;4.50;3.90;;;21.10;99.90;;;;;;5075116;28;20232;-58
2023/08/13 04:51:22;;;;;;;4.68;4.28;;;21.20;99.90;;;;;;5074866;28;20200;-59
2023/08/13 04:53:49;;;;;;;4.38;4.07;;;21.20;99.90;;;;;;5074776;28;20731;-59
2023/08/13 04:56:15;;;;;;;4.80;4.40;;;21.30;99.90;;;;;;5074633;28;20600;-59
2023/08/13 04:58:43;;;;;;;5.15;4.45;;;21.30;99.90;;;;;;5074772;28;20205;-59
2023/08/13 05:01:10;;;;;;;11.02;9.30;;;21.40;99.90;;;;;;5074874;28;20209;-59
2023/08/13 05:03:39;;;;;;;5.95;4.63;;;21.40;99.90;;;;;;5074584;28;20623;-59
2023/08/13 05:06:05;;;;;;;5.68;4.10;;;21.50;99.90;;;;;;5074513;28;20315;-58
2023/08/13 05:08:32;;;;;;;5.00;4.60;;;21.50;99.90;;;;;;5074648;28;20592;-58
2023/08/13 05:10:59;;;;;;;5.68;5.00;;;21.70;99.90;;;;;;5074511;28;20209;-59
2023/08/13 05:13:25;;;;;;;5.10;4.60;;;21.70;99.90;;;;;;5074565;28;20255;-58
2023/08/13 05:15:52;;;;;;;4.72;4.20;;;21.70;99.90;;;;;;5074286;28;20205;-58
2023/08/13 05:18:19;;;;;;;4.47;4.07;;;21.80;99.90;;;;;;5074452;28;20687;-60
2023/08/13 05:20:48;;;;;;;9.80;8.18;;;21.90;99.90;;;;;;5074664;28;20205;-59
2023/08/13 05:23:14;;;;;;;5.57;5.07;;;21.90;99.90;;;;;;5074457;28;20261;-59
2023/08/13 05:25:41;;;;;;;7.43;5.30;;;21.90;99.90;;;;;;5073781;28;20236;-60
2023/08/13 05:28:08;;;;;;;4.47;4.07;;;21.90;99.90;;;;;;5074086;28;20225;-58
2023/08/13 05:30:38;;;;;;;4.15;3.83;;;21.90;99.90;;;;;;5074422;28;20640;-60
2023/08/13 05:33:05;;;;;;;4.38;3.80;;;22.00;99.90;;;;;;5074316;28;20201;-59
2023/08/13 05:35:32;;;;;;;5.38;4.88;;;22.00;99.90;;;;;;5074014;28;20228;-58
2023/08/13 05:38:00;;;;;;;5.28;4.40;;;22.00;99.90;;;;;;5073777;28;20200;-58
2023/08/13 05:40:27;;;;;;;4.78;4.32;;;22.10;99.90;;;;;;5073994;28;20211;-59
2023/08/13 05:42:53;;;;;;;6.43;4.90;;;22.10;99.90;;;;;;5074182;28;20233;-59
2023/08/13 05:45:20;;;;;;;5.07;3.97;;;22.20;99.90;;;;;;5074073;28;20225;-59
2023/08/13 05:47:47;;;;;;;5.97;4.30;;;22.20;99.90;;;;;;5073859;28;20625;-59
2023/08/13 05:50:13;;;;;;;4.60;4.20;;;22.20;99.90;;;;;;5074072;28;20597;-59
2023/08/13 05:52:40;;;;;;;5.03;4.53;;;22.20;99.90;;;;;;5073903;28;20232;-59
2023/08/13 05:55:09;;;;;;;4.93;4.43;;;22.10;99.90;;;;;;5072789;28;20225;-58
2023/08/13 05:57:35;;;;;;;4.30;3.90;;;22.10;99.90;;;;;;5073381;28;20208;-58
2023/08/13 06:00:05;;;;;;;5.32;4.43;;;22.00;99.90;;;;;;5073651;28;20208;-59
2023/08/13 06:02:32;;;;;;;4.88;3.92;;;22.00;99.90;;;;;;5073773;28;20205;-59
2023/08/13 06:04:59;;;;;;;4.20;3.80;;;22.00;99.90;;;;;;5073465;28;20228;-58
2023/08/13 06:07:25;;;;;;;5.13;4.00;;;22.00;99.90;;;;;;5073359;28;20665;-58
2023/08/13 06:09:52;;;;;;;4.97;3.90;;;22.10;99.90;;;;;;5073417;28;20231;-61
2023/08/13 06:12:20;;;;;;;5.15;4.00;;;22.10;99.90;;;;;;5073740;28;20209;-58
2023/08/13 06:14:46;;;;;;;6.53;3.83;;;22.20;99.90;;;;;;5073852;28;20586;-58
2023/08/13 06:17:13;;;;;;;6.15;4.22;;;22.30;99.90;;;;;;5073372;28;20204;-58
2023/08/13 06:19:40;;;;;;;4.50;3.72;;;22.40;99.90;;;;;;5073392;28;20474;-58
2023/08/13 06:22:06;;;;;;;3.95;3.65;;;22.40;99.90;;;;;;5073383;28;20213;-58
2023/08/13 06:24:33;;;;;;;6.22;3.50;;;22.50;99.90;;;;;;5095608;22;20225;-59
2023/08/13 06:27:00;;;;;;;4.32;3.40;;;22.70;99.90;;;;;;5072918;28;20208;-59
2023/08/13 06:29:28;;;;;;;3.88;3.50;;;22.80;99.90;;;;;;5073444;28;20216;-59
2023/08/13 06:31:55;;;;;;;3.95;3.10;;;22.90;99.90;;;;;;5073274;28;20633;-59
2023/08/13 06:34:21;;;;;;;3.53;3.22;;;23.00;99.90;;;;;;5073557;28;20311;-59
2023/08/13 06:36:48;;;;;;;3.50;3.20;;;23.00;99.90;;;;;;5072966;28;20683;-59
2023/08/13 06:39:15;;;;;;;5.85;2.97;;;23.00;99.90;;;;;;5073740;28;20201;-58
2023/08/13 06:41:41;;;;;;;3.17;2.90;;;22.90;99.90;;;;;;5073366;28;20571;-58
2023/08/13 06:44:17;;;;;;;4.22;3.38;;;22.90;99.90;;;;;;5072948;28;20240;-59
2023/08/13 06:46:45;;;;;;;3.40;3.08;;;22.90;99.90;;;;;;5073026;28;20319;-59
2023/08/13 06:49:12;;;;;;;4.45;2.80;;;22.90;99.90;;;;;;5072638;28;20208;-59
2023/08/13 06:51:39;;;;;;;5.47;3.17;;;22.80;99.90;;;;;;5072831;28;20469;-59
2023/08/13 06:54:06;;;;;;;5.57;3.00;;;22.80;99.90;;;;;;5073503;28;20221;-60
2023/08/13 06:56:35;;;;;;;3.42;3.13;;;23.00;99.90;;;;;;5072659;28;20213;-58
2023/08/13 06:59:01;;;;;;;3.22;2.92;;;23.10;99.90;;;;;;5072360;28;20209;-58
2023/08/13 07:01:28;;;;;;;5.22;4.72;;;23.20;99.90;;;;;;5072196;28;20209;-58
2023/08/13 07:03:56;;;;;;;4.72;3.90;;;23.30;99.90;;;;;;5072051;28;20224;-59
2023/08/13 07:06:23;;;;;;;7.90;6.25;;;23.40;99.90;;;;;;5071898;28;20578;-59
2023/08/13 07:08:50;;;;;;;4.35;3.63;;;23.40;99.90;;;;;;5072281;28;20205;-58
2023/08/13 07:11:16;;;;;;;4.25;3.28;;;23.50;99.90;;;;;;5072146;28;20208;-59
2023/08/13 07:13:43;;;;;;;4.40;3.50;;;23.50;99.90;;;;;;5071971;28;20213;-59
2023/08/13 07:16:13;;;;;;;5.47;3.60;;;23.40;99.90;;;;;;5071503;28;20265;-58
2023/08/13 07:18:42;;;;;;;5.25;3.53;;;23.30;99.90;;;;;;5072379;28;20247;-59
2023/08/13 07:21:11;;;;;;;6.82;4.13;;;23.30;99.90;;;;;;5072021;28;20212;-59
2023/08/13 07:23:37;;;;;;;4.18;3.70;;;23.30;99.90;;;;;;5071599;28;20814;-58
2023/08/13 07:26:05;;;;;;;3.60;3.13;;;23.40;99.90;;;;;;5071340;28;20236;-58
2023/08/13 07:28:34;;;;;;;3.25;2.97;;;23.40;99.90;;;;;;5071813;28;20242;-59
2023/08/13 07:31:03;;;;;;;3.85;3.33;;;23.50;99.90;;;;;;5071684;28;20303;-59
2023/08/13 07:33:30;;;;;;;3.38;3.08;;;23.60;99.90;;;;;;5071835;28;20663;-59
2023/08/13 07:35:57;;;;;;;2.90;2.70;;;23.80;99.90;;;;;;5071455;28;20267;-58
2023/08/13 07:38:25;;;;;;;5.88;3.05;;;24.00;99.90;;;;;;5071609;28;20205;-59
2023/08/13 07:40:52;;;;;;;3.40;3.03;;;24.10;99.90;;;;;;5071679;28;20688;-59
2023/08/13 07:43:19;;;;;;;2.63;2.42;;;24.30;99.90;;;;;;5071317;28;20208;-59
2023/08/13 07:45:46;;;;;;;6.88;2.85;;;24.40;99.90;;;;;;5071360;28;20229;-58
2023/08/13 07:48:13;;;;;;;4.03;2.90;;;24.50;99.90;;;;;;5071493;28;20262;-57
2023/08/13 07:50:40;;;;;;;4.72;2.85;;;24.70;99.90;;;;;;5071397;28;20207;-58
2023/08/13 07:53:06;;;;;;;3.75;2.50;;;24.70;99.90;;;;;;5071419;28;20209;-59
2023/08/13 07:55:35;;;;;;;3.78;2.58;;;24.80;99.90;;;;;;5071196;28;20673;-59
2023/08/13 07:58:02;;;;;;;3.72;2.70;;;24.90;99.90;;;;;;5070985;28;20676;-59
2023/08/13 08:00:28;;;;;;;2.40;2.20;;;25.10;99.90;;;;;;5071421;28;20208;-58
2023/08/13 08:02:55;;;;;;;2.67;2.47;;;25.20;99.90;;;;;;5071507;28;20233;-58
2023/08/13 08:05:22;;;;;;;2.70;2.42;;;25.30;99.90;;;;;;5071178;28;20239;-59
2023/08/13 08:07:49;;;;;;;5.47;2.90;;;25.50;99.90;;;;;;5071002;28;20213;-59
2023/08/13 08:10:16;;;;;;;3.20;2.53;;;25.60;99.90;;;;;;5071363;28;20212;-59
2023/08/13 08:12:43;;;;;;;3.38;2.40;;;25.80;99.90;;;;;;5071266;28;20626;-58
2023/08/13 08:15:11;;;;;;;3.17;2.00;;;26.10;99.90;;;;;;5071393;28;20227;-62
2023/08/13 08:17:38;;;;;;;4.32;2.30;;;26.40;99.90;;;;;;5070999;28;20205;-58
2023/08/13 08:20:06;;;;;;;2.30;2.10;;;26.80;99.90;;;;;;5070799;28;20219;-59
2023/08/13 08:22:33;;;;;;;2.65;2.22;;;27.00;99.90;;;;;;5071339;28;20215;-58
2023/08/13 08:24:59;;;;;;;2.90;2.22;;;27.50;99.90;;;;;;5070538;28;20610;-58
2023/08/13 08:27:27;;;;;;;3.13;1.98;;;28.00;99.90;;;;;;5070937;28;20204;-58
2023/08/13 08:29:55;;;;;;;3.05;2.25;;;28.60;99.90;;;;;;5071195;28;20204;-59
2023/08/13 08:32:22;;;;;;;2.75;2.00;;;28.80;99.90;;;;;;5070991;28;20228;-58
2023/08/13 08:34:48;;;;;;;2.30;1.90;;;28.80;99.90;;;;;;5071003;28;20266;-58
2023/08/13 08:37:15;;;;;;;4.30;2.22;;;28.80;99.90;;;;;;5070506;28;20212;-59
2023/08/13 08:39:42;;;;;;;2.08;1.52;;;28.70;99.90;;;;;;5070823;28;20433;-58
2023/08/13 08:42:10;;;;;;;3.47;1.80;;;28.40;99.90;;;;;;5070968;28;20236;-58
2023/08/13 08:44:41;;;;;;;2.95;1.73;;;28.30;99.90;;;;;;5070862;28;20255;-58
2023/08/13 08:47:10;;;;;;;27.25;22.00;;;28.50;99.90;;;;;;5070927;28;20224;-58
2023/08/13 08:49:37;;;;;;;2.00;1.73;;;28.70;99.90;;;;;;5070948;28;20212;-59
2023/08/13 08:52:05;;;;;;;3.15;2.00;;;28.80;99.90;;;;;;5070642;28;20602;-59
2023/08/13 08:54:33;;;;;;;2.55;1.90;;;28.90;99.90;;;;;;5070708;28;20225;-58
2023/08/13 08:57:00;;;;;;;3.25;2.00;;;29.00;99.90;;;;;;5070549;28;20205;-59
2023/08/13 08:59:27;;;;;;;1.90;1.70;;;29.10;99.90;;;;;;5076446;28;20583;-62
2023/08/13 09:01:53;;;;;;;3.63;2.25;;;29.20;99.90;;;;;;5090162;28;20238;-62
2023/08/13 09:04:22;;;;;;;2.70;1.80;;;29.10;99.90;;;;;;5090276;28;20239;-62
2023/08/13 09:06:56;;;;;;;2.35;1.75;;;29.10;99.90;;;;;;5069373;28;20204;-61
2023/08/13 09:09:23;;;;;;;3.13;1.77;;;29.00;99.90;;;;;;5069916;28;20236;-60
2023/08/13 09:11:50;;;;;;;3.33;1.90;;;29.10;99.90;;;;;;5069948;28;20209;-61
2023/08/13 09:14:18;;;;;;;2.22;1.60;;;29.30;99.90;;;;;;5069315;28;20225;-63
2023/08/13 09:16:48;;;;;;;2.88;1.85;;;29.40;99.90;;;;;;5069510;28;20215;-63
2023/08/13 09:19:15;;;;;;;3.33;2.15;;;29.50;99.90;;;;;;5069662;28;20579;-63
2023/08/13 09:21:51;;;;;;;2.63;2.00;;;29.50;99.90;;;;;;5069805;28;20211;-65
2023/08/13 09:24:17;;;;;;;2.13;1.70;;;29.60;99.90;;;;;;5069806;28;20236;-63
2023/08/13 09:26:44;;;;;;;2.33;1.80;;;29.90;99.90;;;;;;5069378;28;20216;-60
2023/08/13 09:29:11;;;;;;;2.25;1.77;;;30.20;99.90;;;;;;5069480;28;20672;-61
2023/08/13 09:31:38;;;;;;;2.28;1.70;;;30.40;99.90;;;;;;5071575;28;20710;-61
2023/08/13 09:34:05;;;;;;;3.03;1.70;;;30.40;99.90;;;;;;5073161;28;20201;-60
2023/08/13 09:36:32;;;;;;;2.97;1.90;;;30.30;99.90;;;;;;5072996;28;20243;-61
2023/08/13 09:39:00;;;;;;;2.95;1.80;;;30.30;99.90;;;;;;5073164;28;20204;-60
2023/08/13 09:41:28;;;;;;;2.60;1.90;;;30.40;99.90;;;;;;5073078;28;20216;-60
2023/08/13 09:43:56;;;;;;;2.40;1.73;;;30.50;99.90;;;;;;5072987;28;20205;-60
2023/08/13 09:46:27;;;;;;;2.67;1.80;;;30.80;99.90;;;;;;5072376;28;20575;-62
2023/08/13 09:48:56;;;;;;;2.22;1.73;;;31.10;99.90;;;;;;5073764;28;20259;-60
2023/08/13 09:51:30;;;;;;;3.03;1.98;;;31.40;99.90;;;;;;5073296;28;20636;-64
2023/08/13 09:54:07;;;;;;;3.45;2.00;;;31.60;99.90;;;;;;5073274;28;20204;-62
2023/08/13 09:56:36;;;;;;;2.15;1.80;;;31.70;99.90;;;;;;5072571;28;20318;-64
2023/08/13 09:59:04;;;;;;;2.13;1.70;;;31.60;99.90;;;;;;5072455;28;20657;-63
2023/08/13 10:01:31;;;;;;;4.03;1.83;;;31.70;99.90;;;;;;5072925;28;20219;-64
2023/08/13 10:03:59;;;;;;;2.80;1.88;;;31.90;99.90;;;;;;5072343;28;20205;-65
2023/08/13 10:06:26;;;;;;;4.40;2.10;;;31.60;99.90;;;;;;5072447;28;20201;-63
2023/08/13 10:08:53;;;;;;;2.83;1.95;;;31.30;99.90;;;;;;5072494;28;20205;-61
2023/08/13 10:11:22;;;;;;;4.43;2.03;;;31.00;99.90;;;;;;5072257;28;20255;-62
2023/08/13 10:13:49;;;;;;;4.00;2.00;;;30.60;99.90;;;;;;5072716;28;20212;-63
2023/08/13 10:16:16;;;;;;;4.20;2.08;;;30.40;99.90;;;;;;5072214;28;20212;-63
2023/08/13 10:18:45;;;;;;;2.75;1.83;;;30.40;99.90;;;;;;5072261;28;20608;-62
2023/08/13 10:21:13;;;;;;;4.35;2.00;;;30.40;99.90;;;;;;5075587;28;20342;-62
2023/08/13 10:23:40;;;;;;;2.92;1.77;;;30.50;99.90;;;;;;5073826;28;20301;-59
2023/08/13 10:26:09;;;;;;;2.97;1.85;;;30.40;99.90;;;;;;5083168;28;20583;-59
2023/08/13 10:28:37;;;;;;;4.25;2.40;;;30.30;99.90;;;;;;5092588;28;20208;-59
2023/08/13 10:31:30;;;;;;;3.35;2.20;;;30.00;99.90;;;;;;5092573;28;20204;-60
2023/08/13 10:34:11;;;;;;;4.15;1.80;;;30.00;99.90;;;;;;5091991;28;20205;-60
2023/08/13 10:36:46;;;;;;;2.72;2.05;;;29.90;99.90;;;;;;5091643;28;20581;-59
2023/08/13 10:39:36;;;;;;;2.88;2.10;;;29.70;99.90;;;;;;5092116;28;20210;-59
2023/08/13 10:42:04;;;;;;;3.25;2.03;;;29.60;99.90;;;;;;5091686;28;20212;-59
2023/08/13 10:44:39;;;;;;;2.33;1.80;;;29.60;99.90;;;;;;5091789;28;20601;-59
2023/08/13 10:47:07;;;;;;;2.90;2.00;;;29.60;99.90;;;;;;5091897;28;20219;-59
2023/08/13 10:49:36;;;;;;;3.17;2.42;;;29.80;99.90;;;;;;5091399;28;20741;-59
2023/08/13 10:52:03;;;;;;;5.20;2.30;;;30.30;99.90;;;;;;5092228;28;20215;-60
2023/08/13 10:54:30;;;;;;;3.55;2.15;;;30.70;99.90;;;;;;5091629;28;20273;-59
2023/08/13 10:56:59;;;;;;;3.53;2.00;;;30.90;99.90;;;;;;5091479;28;20231;-59
2023/08/13 10:59:32;;;;;;;5.68;2.33;;;31.30;99.90;;;;;;5091280;28;20262;-60
2023/08/13 11:02:14;;;;;;;2.28;2.00;;;31.90;99.90;;;;;;5091778;28;20204;-60
2023/08/13 11:04:43;;;;;;;2.70;1.80;;;32.30;99.90;;;;;;5089343;28;20231;-61
2023/08/13 11:07:10;;;;;;;2.90;1.90;;;32.00;99.90;;;;;;5091313;28;20232;-61
2023/08/13 11:09:37;;;;;;;3.05;2.00;;;31.60;99.90;;;;;;5091786;28;20207;-61
2023/08/13 11:12:05;;;;;;;4.22;2.13;;;31.20;99.90;;;;;;5091869;28;20257;-60
2023/08/13 11:14:33;;;;;;;2.80;2.00;;;30.80;99.90;;;;;;5091306;28;20273;-60
2023/08/13 11:17:00;;;;;;;3.45;2.13;;;30.80;99.90;;;;;;5091062;28;20216;-59
2023/08/13 11:19:27;;;;;;;4.05;1.90;;;30.60;99.90;;;;;;5091432;28;20208;-60
2023/08/13 11:21:55;;;;;;;3.30;2.15;;;30.80;99.90;;;;;;5090941;28;20208;-62
2023/08/13 11:24:22;;;;;;;3.70;2.33;;;30.90;99.90;;;;;;5090676;28;20719;-61
2023/08/13 11:26:49;;;;;;;3.60;2.15;;;30.30;99.90;;;;;;5090454;28;20845;-62
2023/08/13 11:29:20;;;;;;;2.47;1.63;;;30.00;99.90;;;;;;5074017;28;20243;-62
2023/08/13 11:31:49;;;;;;;3.30;1.90;;;29.80;99.90;;;;;;5070932;28;20388;-60
2023/08/13 11:34:17;;;;;;;2.83;1.85;;;29.70;99.90;;;;;;5071000;28;20221;-60
2023/08/13 11:36:45;;;;;;;3.08;2.00;;;29.70;99.90;;;;;;5070742;28;20204;-60
2023/08/13 11:39:12;;;;;;;3.40;2.10;;;29.80;99.90;;;;;;5071063;28;20227;-61
2023/08/13 11:41:39;;;;;;;2.63;1.88;;;29.90;99.90;;;;;;5070816;28;20207;-61
2023/08/13 11:44:10;;;;;;;3.10;1.83;;;29.90;99.90;;;;;;5070878;28;20564;-62
2023/08/13 11:47:04;;;;;;;3.55;2.05;;;29.90;99.90;;;;;;5070477;28;20216;-61
2023/08/13 11:49:31;;;;;;;3.58;2.17;;;29.90;99.90;;;;;;5056501;28;20205;-61
2023/08/13 11:51:58;;;;;;;2.30;1.90;;;29.90;99.90;;;;;;5070907;28;20215;-61
2023/08/13 11:54:25;;;;;;;3.95;2.10;;;30.20;99.90;;;;;;5069863;28;20229;-63
2023/08/13 11:56:53;;;;;;;2.15;1.92;;;30.30;99.90;;;;;;5070481;28;20205;-63
2023/08/13 11:59:24;;;;;;;3.38;1.95;;;30.30;99.90;;;;;;5070718;28;20215;-62
2023/08/13 12:01:53;;;;;;;2.10;1.90;;;30.20;99.90;;;;;;5070875;28;20586;-63
2023/08/13 12:04:22;;;;;;;3.20;2.33;;;30.10;99.90;;;;;;5070195;28;20252;-63
2023/08/13 12:06:49;;;;;;;2.97;1.90;;;29.90;99.90;;;;;;5070247;28;20377;-64
2023/08/13 12:09:16;;;;;;;3.30;1.90;;;29.80;99.90;;;;;;5070142;28;20204;-62
2023/08/13 12:11:43;;;;;;;4.88;2.40;;;29.80;99.90;;;;;;5070364;28;20204;-63
2023/08/13 12:14:11;;;;;;;2.75;2.40;;;29.70;99.90;;;;;;5070209;28;20231;-62
2023/08/13 12:16:38;;;;;;;3.08;2.20;;;29.70;99.90;;;;;;5069986;28;20611;-63
2023/08/13 12:19:06;;;;;;;3.72;2.47;;;29.90;99.90;;;;;;5070608;28;20554;-62
2023/08/13 12:21:35;;;;;;;2.47;2.03;;;30.10;99.90;;;;;;5070943;28;20235;-62
2023/08/13 12:24:04;;;;;;;2.97;1.98;;;29.90;99.90;;;;;;5070097;28;20239;-62
2023/08/13 12:26:30;;;;;;;2.45;1.83;;;29.90;99.90;;;;;;5068260;22;20316;-64
2023/08/13 12:28:57;;;;;;;4.47;2.13;;;29.80;99.90;;;;;;5048863;28;20205;-66
2023/08/13 12:31:25;;;;;;;3.55;2.30;;;29.70;99.90;;;;;;5050499;28;20717;-62
2023/08/13 12:33:52;;;;;;;3.45;2.42;;;29.90;99.90;;;;;;5051241;28;20266;-62
2023/08/13 12:36:18;;;;;;;2.10;1.90;;;30.10;99.90;;;;;;5050648;28;20632;-62
2023/08/13 12:38:47;;;;;;;3.47;2.20;;;30.20;99.90;;;;;;5050749;28;20212;-63
2023/08/13 12:41:13;;;;;;;3.05;2.10;;;29.80;99.90;;;;;;5050475;28;20205;-62
2023/08/13 12:43:40;;;;;;;2.83;2.22;;;29.50;99.90;;;;;;5050227;28;20710;-63
2023/08/13 12:46:08;;;;;;;3.85;2.08;;;29.00;99.90;;;;;;5049988;28;20320;-62
2023/08/13 12:48:37;;;;;;;3.58;2.30;;;28.90;99.90;;;;;;5050208;28;20209;-63